createdAt,value
2023-05-22T00:01:08.779Z,19.87
2023-05-22T00:03:37.818Z,19.82
2023-05-22T00:06:10.208Z,19.70
2023-05-22T00:08:38.419Z,19.61
2023-05-22T00:11:07.408Z,19.41
2023-05-22T00:13:37.316Z,19.37
2023-05-22T00:16:11.687Z,19.32
2023-05-22T00:18:42.723Z,19.36
2023-05-22T00:21:10.860Z,19.44
2023-05-22T00:23:41.229Z,19.18
2023-05-22T00:26:09.108Z,19.11
2023-05-22T00:28:37.315Z,18.99
2023-05-22T00:31:07.873Z,18.93
2023-05-22T00:33:41.617Z,19.09
2023-05-22T00:36:12.149Z,19.14
2023-05-22T00:38:44.142Z,19.09
2023-05-22T00:41:12.090Z,19.09
2023-05-22T00:43:42.099Z,18.95
2023-05-22T00:46:12.877Z,18.98
2023-05-22T00:48:44.460Z,18.96
2023-05-22T00:51:15.440Z,18.82
2023-05-22T00:53:56.207Z,18.70
2023-05-22T00:56:24.569Z,18.92
2023-05-22T01:01:42.168Z,19.06
2023-05-22T01:04:13.457Z,18.88
2023-05-22T01:06:47.644Z,18.85
2023-05-22T01:09:25.372Z,18.73
2023-05-22T01:12:03.155Z,18.69
2023-05-22T01:14:41.871Z,19.10
2023-05-22T01:17:24.584Z,18.84
2023-05-22T01:20:07.282Z,18.83
2023-05-22T01:23:03.069Z,18.77
2023-05-22T01:25:55.311Z,19.00
2023-05-22T01:28:45.976Z,19.00
2023-05-22T01:31:19.472Z,18.76
2023-05-22T01:33:50.416Z,18.65
2023-05-22T01:36:23.991Z,18.58
2023-05-22T01:38:56.432Z,18.69
2023-05-22T01:41:25.882Z,18.90
2023-05-22T01:43:58.742Z,19.03
2023-05-22T01:46:37.184Z,18.93
2023-05-22T01:49:06.588Z,18.49
2023-05-22T01:51:46.561Z,18.46
2023-05-22T01:54:27.462Z,18.34
2023-05-22T01:57:07.308Z,18.46
2023-05-22T01:59:48.564Z,18.41
2023-05-22T02:02:23.160Z,18.53
2023-05-22T02:05:00.087Z,18.31
2023-05-22T02:07:34.708Z,18.14
2023-05-22T02:10:08.257Z,18.44
2023-05-22T02:12:37.888Z,18.26
2023-05-22T02:15:10.594Z,18.27
2023-05-22T02:17:41.478Z,18.17
2023-05-22T02:20:15.475Z,18.13
2023-05-22T02:22:44.925Z,17.92
2023-05-22T02:25:15.149Z,17.83
2023-05-22T02:27:45.757Z,17.74
2023-05-22T02:30:19.702Z,17.61
2023-05-22T02:32:53.765Z,17.70
2023-05-22T02:35:22.761Z,17.66
2023-05-22T02:37:50.807Z,17.64
2023-05-22T02:40:19.084Z,17.57
2023-05-22T02:42:49.278Z,17.63
2023-05-22T02:45:18.247Z,17.66
2023-05-22T02:47:46.825Z,17.62
2023-05-22T02:50:17.693Z,17.58
2023-05-22T02:52:46.539Z,17.51
2023-05-22T02:55:16.093Z,17.55
2023-05-22T02:57:46.759Z,17.63
2023-05-22T03:00:15.269Z,17.60
2023-05-22T03:02:44.962Z,17.56
2023-05-22T03:05:18.266Z,17.57
2023-05-22T03:07:48.994Z,17.47
2023-05-22T03:10:17.656Z,17.48
2023-05-22T03:12:48.324Z,17.45
2023-05-22T03:15:20.840Z,17.51
2023-05-22T03:17:48.732Z,17.51
2023-05-22T03:20:17.111Z,17.58
2023-05-22T03:22:45.345Z,17.49
2023-05-22T03:25:15.524Z,17.45
2023-05-22T03:27:43.375Z,17.43
2023-05-22T03:30:12.467Z,17.46
2023-05-22T03:32:40.996Z,17.48
2023-05-22T03:35:15.773Z,17.42
2023-05-22T03:37:43.580Z,17.42
2023-05-22T03:40:12.429Z,17.44
2023-05-22T03:42:42.432Z,17.45
2023-05-22T03:45:12.595Z,17.40
2023-05-22T03:47:43.890Z,17.46
2023-05-22T03:50:12.209Z,17.44
2023-05-22T03:52:41.934Z,17.55
2023-05-22T03:55:12.159Z,17.65
2023-05-22T03:57:41.598Z,17.44
2023-05-22T04:00:15.140Z,17.58
2023-05-22T04:02:46.938Z,17.74
2023-05-22T04:05:15.416Z,17.76
2023-05-22T04:07:48.316Z,17.79
2023-05-22T04:10:16.935Z,17.85
2023-05-22T04:12:47.521Z,17.81
2023-05-22T04:15:16.009Z,17.92
2023-05-22T04:17:44.421Z,17.99
2023-05-22T04:20:13.141Z,17.93
2023-05-22T04:22:41.598Z,17.81
2023-05-22T04:25:11.520Z,17.97
2023-05-22T04:27:40.730Z,18.00
2023-05-22T04:30:11.446Z,18.13
2023-05-22T04:32:39.694Z,17.95
2023-05-22T04:35:10.360Z,17.96
2023-05-22T04:37:40.806Z,18.07
2023-05-22T04:40:10.140Z,18.10
2023-05-22T04:42:39.219Z,18.22
2023-05-22T04:45:08.895Z,18.23
2023-05-22T04:47:41.728Z,18.21
2023-05-22T04:50:10.668Z,18.21
2023-05-22T04:52:41.970Z,18.26
2023-05-22T04:55:12.180Z,18.36
2023-05-22T04:57:40.998Z,18.27
2023-05-22T05:00:10.242Z,18.47
2023-05-22T05:02:40.240Z,18.36
2023-05-22T05:05:08.932Z,18.52
2023-05-22T05:07:38.824Z,18.54
2023-05-22T05:10:09.076Z,18.49
2023-05-22T05:12:39.103Z,18.71
2023-05-22T05:15:10.477Z,19.06
2023-05-22T05:17:40.259Z,19.35
2023-05-22T05:20:11.497Z,19.52
2023-05-22T05:22:40.476Z,19.90
2023-05-22T05:25:11.651Z,19.87
2023-05-22T05:27:40.090Z,20.13
2023-05-22T05:30:10.772Z,20.16
2023-05-22T05:32:42.092Z,20.50
2023-05-22T05:35:10.881Z,20.35
2023-05-22T05:37:42.031Z,20.82
2023-05-22T05:40:10.960Z,20.65
2023-05-22T05:42:41.163Z,20.71
2023-05-22T05:45:11.522Z,20.74
2023-05-22T05:47:41.447Z,21.08
2023-05-22T05:50:11.467Z,21.54
2023-05-22T05:52:39.782Z,21.38
2023-05-22T05:55:07.954Z,21.52
2023-05-22T05:57:38.667Z,21.31
2023-05-22T06:00:10.636Z,21.43
2023-05-22T06:02:41.012Z,21.66
2023-05-22T06:05:10.663Z,21.59
2023-05-22T06:07:40.593Z,21.75
2023-05-22T06:10:16.842Z,22.17
2023-05-22T06:12:44.925Z,22.49
2023-05-22T06:15:17.634Z,22.34
2023-05-22T06:17:47.470Z,22.21
2023-05-22T06:20:16.022Z,22.13
2023-05-22T06:22:44.180Z,21.97
2023-05-22T06:25:13.909Z,22.19
2023-05-22T06:27:42.817Z,22.33
2023-05-22T06:30:12.486Z,22.41
2023-05-22T06:32:58.240Z,22.40
2023-05-22T06:35:26.485Z,22.34
2023-05-22T06:37:58.986Z,22.86
2023-05-22T06:40:29.344Z,22.78
2023-05-22T06:42:59.989Z,22.86
2023-05-22T06:45:28.552Z,22.69
2023-05-22T06:47:59.174Z,22.48
2023-05-22T06:50:27.302Z,22.62
2023-05-22T06:53:01.447Z,23.11
2023-05-22T06:55:29.302Z,22.96
2023-05-22T06:57:57.108Z,23.28
2023-05-22T07:00:26.141Z,23.29
2023-05-22T07:02:54.496Z,23.05
2023-05-22T07:05:24.497Z,23.07
2023-05-22T07:07:52.578Z,23.35
2023-05-22T07:10:21.685Z,23.54
2023-05-22T07:12:49.936Z,23.07
2023-05-22T07:15:18.677Z,23.36
2023-05-22T07:17:49.226Z,23.69
2023-05-22T07:20:18.786Z,23.86
2023-05-22T07:22:49.804Z,23.59
2023-05-22T07:25:18.450Z,24.21
2023-05-22T07:27:48.289Z,23.70
2023-05-22T07:30:19.866Z,23.89
2023-05-22T07:32:49.727Z,24.14
2023-05-22T07:35:18.867Z,24.38
2023-05-22T07:37:53.259Z,24.34
2023-05-22T07:40:21.655Z,24.56
2023-05-22T07:42:50.075Z,24.78
2023-05-22T07:45:17.969Z,24.49
2023-05-22T07:47:47.263Z,24.33
2023-05-22T07:50:15.158Z,24.46
2023-05-22T07:52:44.313Z,24.35
2023-05-22T07:55:15.673Z,25.31
2023-05-22T07:57:44.340Z,25.27
2023-05-22T08:00:15.830Z,25.23
2023-05-22T08:02:45.737Z,25.16
2023-05-22T08:05:15.471Z,25.10
2023-05-22T08:07:44.682Z,25.24
2023-05-22T08:10:18.693Z,25.49
2023-05-22T08:12:46.539Z,25.80
2023-05-22T08:15:15.802Z,25.26
2023-05-22T08:17:45.945Z,26.19
2023-05-22T08:20:14.665Z,26.20
2023-05-22T08:22:46.504Z,26.42
2023-05-22T08:25:17.697Z,25.99
2023-05-22T08:27:48.897Z,25.99
2023-05-22T08:30:18.440Z,26.23
2023-05-22T08:32:48.485Z,25.82
2023-05-22T08:35:17.158Z,26.04
2023-05-22T08:37:46.241Z,26.51
2023-05-22T08:40:18.086Z,26.96
2023-05-22T08:42:46.267Z,26.64
2023-05-22T08:45:18.437Z,26.57
2023-05-22T08:47:53.858Z,27.46
2023-05-22T08:50:23.058Z,27.28
2023-05-22T08:52:54.074Z,27.12
2023-05-22T08:55:24.804Z,26.60
2023-05-22T08:57:55.377Z,25.92
2023-05-22T09:00:24.863Z,26.61
2023-05-22T09:02:56.194Z,26.94
2023-05-22T09:05:27.050Z,27.17
2023-05-22T09:07:58.396Z,27.07
2023-05-22T09:10:35.970Z,26.98
2023-05-22T09:13:08.876Z,27.04
2023-05-22T09:15:39.124Z,27.09
2023-05-22T09:18:07.981Z,26.86
2023-05-22T09:20:39.369Z,26.84
2023-05-22T09:23:17.720Z,27.41
2023-05-22T09:25:49.771Z,27.43
2023-05-22T09:28:20.612Z,27.82
2023-05-22T09:30:51.084Z,27.41
2023-05-22T09:33:19.304Z,27.18
2023-05-22T09:35:49.770Z,27.84
2023-05-22T09:38:19.188Z,27.98
2023-05-22T09:40:53.909Z,27.55
2023-05-22T09:43:23.797Z,27.70
2023-05-22T09:45:58.982Z,27.67
2023-05-22T09:48:27.881Z,27.85
2023-05-22T09:51:02.152Z,27.83
2023-05-22T09:53:35.028Z,27.61
2023-05-22T09:56:12.586Z,27.85
2023-05-22T09:58:47.133Z,27.91
2023-05-22T10:01:17.559Z,27.94
2023-05-22T10:03:53.244Z,28.02
2023-05-22T10:06:24.026Z,28.25
2023-05-22T10:08:58.224Z,28.38
2023-05-22T10:11:32.215Z,27.90
2023-05-22T10:14:01.849Z,28.15
2023-05-22T10:16:31.195Z,27.91
2023-05-22T10:19:04.300Z,28.15
2023-05-22T10:21:33.941Z,27.91
2023-05-22T10:24:06.552Z,28.88
2023-05-22T10:26:36.260Z,27.73
2023-05-22T10:29:12.951Z,28.04
2023-05-22T10:31:46.905Z,28.54
2023-05-22T10:34:32.696Z,28.71
2023-05-22T10:37:19.214Z,28.77
2023-05-22T10:40:07.283Z,28.15
2023-05-22T10:42:40.078Z,28.83
2023-05-22T10:45:09.500Z,28.52
2023-05-22T10:47:39.682Z,27.81
2023-05-22T10:50:12.810Z,28.21
2023-05-22T10:52:41.320Z,28.67
2023-05-22T10:55:12.318Z,29.21
2023-05-22T10:57:45.931Z,29.22
2023-05-22T11:00:20.037Z,29.03
2023-05-22T11:02:48.238Z,29.31
2023-05-22T11:05:38.903Z,28.55
2023-05-22T11:08:30.660Z,29.14
2023-05-22T11:11:01.918Z,29.68
2023-05-22T11:13:33.762Z,29.47
2023-05-22T11:16:06.805Z,29.01
2023-05-22T11:18:42.970Z,29.09
2023-05-22T11:21:16.304Z,29.32
2023-05-22T11:23:47.004Z,29.70
2023-05-22T11:26:28.007Z,29.29
2023-05-22T11:29:02.012Z,29.47
2023-05-22T11:31:36.259Z,29.14
2023-05-22T11:34:04.719Z,29.91
2023-05-22T11:36:33.883Z,29.27
2023-05-22T11:39:05.763Z,29.47
2023-05-22T11:41:34.880Z,29.66
2023-05-22T11:44:06.407Z,29.54
2023-05-22T11:46:40.424Z,29.56
2023-05-22T11:49:13.176Z,30.06
2023-05-22T11:51:45.746Z,29.86
2023-05-22T11:54:18.108Z,29.87
2023-05-22T11:56:49.316Z,29.78
2023-05-22T11:59:22.840Z,30.16
2023-05-22T12:01:53.210Z,30.14
2023-05-22T12:04:21.973Z,30.48
2023-05-22T12:06:50.289Z,30.64
2023-05-22T12:09:18.932Z,29.48
2023-05-22T12:11:49.069Z,30.29
2023-05-22T12:14:18.637Z,30.33
2023-05-22T12:16:46.436Z,29.79
2023-05-22T12:19:16.074Z,30.26
2023-05-22T12:21:46.320Z,30.39
2023-05-22T12:24:16.571Z,30.43
2023-05-22T12:26:51.385Z,30.10
2023-05-22T12:29:23.296Z,30.56
2023-05-22T12:31:52.574Z,29.77
2023-05-22T12:34:20.673Z,30.14
2023-05-22T12:36:49.587Z,30.45
2023-05-22T12:39:20.161Z,30.47
2023-05-22T12:41:48.326Z,30.28
2023-05-22T12:44:17.654Z,30.68
2023-05-22T12:46:47.799Z,30.65
2023-05-22T12:49:16.283Z,30.90
2023-05-22T12:51:45.420Z,30.30
2023-05-22T12:54:15.710Z,30.54
2023-05-22T12:56:45.479Z,31.50
2023-05-22T12:59:19.488Z,31.53
2023-05-22T13:01:51.714Z,31.95
2023-05-22T13:04:20.629Z,31.42
2023-05-22T13:06:48.556Z,31.37
2023-05-22T13:09:21.371Z,31.68
2023-05-22T13:11:50.521Z,31.95
2023-05-22T13:14:19.560Z,32.02
2023-05-22T13:16:47.822Z,31.73
2023-05-22T13:19:20.175Z,31.53
2023-05-22T13:21:48.825Z,31.62
2023-05-22T13:24:16.975Z,31.69
2023-05-22T13:26:44.836Z,30.59
2023-05-22T13:29:38.916Z,30.73
2023-05-22T13:32:10.454Z,31.28
2023-05-22T13:34:41.421Z,31.39
2023-05-22T13:37:10.963Z,31.02
2023-05-22T13:39:39.736Z,31.05
2023-05-22T13:42:08.313Z,32.57
2023-05-22T13:44:36.635Z,34.27
2023-05-22T13:47:06.150Z,35.58
2023-05-22T13:49:35.195Z,35.80
2023-05-22T13:52:07.451Z,34.59
2023-05-22T13:54:35.909Z,34.88
2023-05-22T13:57:10.424Z,35.82
2023-05-22T14:00:04.394Z,32.78
2023-05-22T14:02:32.426Z,33.24
2023-05-22T14:05:01.498Z,34.26
2023-05-22T14:07:31.219Z,34.04
2023-05-22T14:10:01.636Z,33.32
2023-05-22T14:12:37.196Z,35.29
2023-05-22T14:15:05.645Z,37.25
2023-05-22T14:17:35.078Z,36.49
2023-05-22T14:20:03.888Z,33.75
2023-05-22T14:22:47.897Z,33.49
2023-05-22T14:25:28.911Z,32.54
2023-05-22T14:27:58.684Z,33.52
2023-05-22T14:30:26.832Z,35.33
2023-05-22T14:32:56.412Z,36.38
2023-05-22T14:35:33.610Z,37.67
2023-05-22T14:38:04.910Z,37.67
2023-05-22T14:40:34.493Z,37.14
2023-05-22T14:43:04.861Z,37.70
2023-05-22T14:45:33.956Z,36.11
2023-05-22T14:48:03.717Z,35.97
2023-05-22T14:50:40.291Z,36.25
2023-05-22T14:53:16.258Z,34.27
2023-05-22T14:55:44.346Z,33.04
2023-05-22T14:58:13.170Z,31.80
2023-05-22T15:00:43.606Z,32.16
2023-05-22T15:03:13.579Z,32.03
2023-05-22T15:05:43.031Z,31.27
2023-05-22T15:08:14.184Z,30.31
2023-05-22T15:10:44.333Z,29.80
2023-05-22T15:13:23.614Z,29.65
2023-05-22T15:15:54.346Z,29.22
2023-05-22T15:18:25.307Z,29.08
2023-05-22T15:20:55.060Z,28.68
2023-05-22T15:23:26.592Z,28.43
2023-05-22T15:25:59.201Z,28.27
2023-05-22T15:28:27.952Z,27.83
2023-05-22T15:30:56.784Z,28.18
2023-05-22T15:33:30.062Z,27.94
2023-05-22T15:36:00.289Z,28.00
2023-05-22T15:38:31.153Z,28.21
2023-05-22T15:41:00.507Z,28.04
2023-05-22T15:43:30.919Z,28.44
2023-05-22T15:46:03.052Z,28.07
2023-05-22T15:48:32.417Z,29.60
2023-05-22T15:51:01.365Z,31.00
2023-05-22T15:53:32.422Z,31.67
2023-05-22T15:56:01.423Z,30.95
2023-05-22T15:58:30.435Z,32.15
2023-05-22T16:00:59.939Z,31.74
2023-05-22T16:03:29.524Z,30.95
2023-05-22T16:06:00.676Z,30.05
2023-05-22T16:08:32.184Z,28.29
2023-05-22T16:11:04.309Z,27.90
2023-05-22T16:13:34.788Z,27.72
2023-05-22T16:16:05.972Z,28.12
2023-05-22T16:18:40.679Z,28.23
2023-05-22T16:21:12.094Z,27.80
2023-05-22T16:23:43.536Z,28.13
2023-05-22T16:26:21.605Z,27.67
2023-05-22T16:28:52.054Z,27.75
2023-05-22T16:31:22.536Z,27.83
2023-05-22T16:33:53.299Z,27.77
2023-05-22T16:36:28.138Z,27.77
2023-05-22T16:38:57.249Z,28.55
2023-05-22T16:41:37.800Z,28.73
2023-05-22T16:44:09.341Z,28.94
2023-05-22T16:46:39.030Z,29.04
2023-05-22T16:49:08.465Z,29.11
2023-05-22T16:51:36.994Z,28.69
2023-05-22T16:54:07.628Z,28.38
2023-05-22T16:56:38.004Z,27.77
2023-05-22T16:59:12.383Z,27.74
2023-05-22T17:01:41.003Z,27.77
2023-05-22T17:04:14.789Z,27.02
2023-05-22T17:06:43.714Z,26.37
2023-05-22T17:09:14.653Z,26.48
2023-05-22T17:11:44.461Z,26.17
2023-05-22T17:14:14.680Z,25.31
2023-05-22T17:16:42.796Z,25.64
2023-05-22T17:19:13.536Z,25.47
2023-05-22T17:21:47.079Z,25.45
2023-05-22T17:24:17.333Z,25.44
2023-05-22T17:26:48.068Z,25.47
2023-05-22T17:29:16.745Z,25.54
2023-05-22T17:31:56.590Z,25.68
2023-05-22T17:34:25.790Z,25.59
2023-05-22T17:36:58.231Z,24.92
2023-05-22T17:39:36.946Z,24.30
2023-05-22T17:42:15.789Z,24.18
2023-05-22T17:44:47.830Z,23.80
2023-05-22T17:47:22.989Z,22.70
2023-05-22T17:49:54.227Z,22.29
2023-05-22T17:52:23.616Z,22.01
2023-05-22T17:54:53.314Z,21.83
2023-05-22T17:57:26.378Z,22.52
2023-05-22T17:59:56.336Z,22.12
2023-05-22T18:02:28.381Z,22.42
2023-05-22T18:04:59.768Z,22.26
2023-05-22T18:07:27.895Z,22.31
2023-05-22T18:09:58.472Z,22.37
2023-05-22T18:12:31.806Z,22.39
2023-05-22T18:15:00.610Z,22.37
2023-05-22T18:17:37.028Z,22.31
2023-05-22T18:20:09.242Z,22.60
2023-05-22T18:22:39.009Z,22.62
2023-05-22T18:25:07.977Z,22.71
2023-05-22T18:27:51.756Z,22.63
2023-05-22T18:30:23.274Z,22.31
2023-05-22T18:32:55.551Z,22.84
2023-05-22T18:35:25.785Z,22.86
2023-05-22T18:37:55.156Z,22.32
2023-05-22T18:40:24.445Z,22.24
2023-05-22T18:42:59.072Z,21.60
2023-05-22T18:45:29.033Z,21.82
2023-05-22T18:48:04.850Z,21.35
2023-05-22T18:50:40.799Z,21.77
2023-05-22T18:53:10.202Z,21.53
2023-05-22T18:55:38.659Z,21.74
2023-05-22T18:58:08.115Z,21.32
2023-05-22T19:00:39.947Z,21.25
2023-05-22T19:03:12.529Z,21.43
2023-05-22T19:05:45.714Z,21.58
2023-05-22T19:08:13.999Z,21.57
2023-05-22T19:10:46.049Z,21.53
2023-05-22T19:13:16.500Z,21.26
2023-05-22T19:15:47.122Z,21.27
2023-05-22T19:18:15.107Z,21.36
2023-05-22T19:20:47.623Z,21.36
2023-05-22T19:23:18.276Z,21.21
2023-05-22T19:25:50.352Z,21.13
2023-05-22T19:28:27.699Z,20.84
2023-05-22T19:31:05.678Z,20.74
2023-05-22T19:33:43.938Z,20.58
2023-05-22T19:36:12.995Z,20.37
2023-05-22T19:38:47.349Z,20.14
2023-05-22T19:41:17.015Z,20.56
2023-05-22T19:43:47.584Z,20.45
2023-05-22T19:46:16.992Z,20.50
2023-05-22T19:48:47.193Z,20.70
2023-05-22T19:51:21.154Z,20.52
2023-05-22T19:53:49.474Z,20.70
2023-05-22T19:56:20.333Z,20.83
2023-05-22T19:58:53.403Z,20.83
2023-05-22T20:01:24.311Z,20.83
2023-05-22T20:03:56.323Z,20.88
2023-05-22T20:06:24.625Z,20.81
2023-05-22T20:08:53.213Z,20.71
2023-05-22T20:11:22.248Z,20.82
2023-05-22T20:13:54.513Z,20.76
2023-05-22T20:16:26.873Z,20.67
2023-05-22T20:19:00.696Z,20.69
2023-05-22T20:21:28.626Z,20.71
2023-05-22T20:24:01.079Z,20.80
2023-05-22T20:26:31.588Z,20.74
2023-05-22T20:29:01.415Z,20.64
2023-05-22T20:31:29.427Z,20.73
2023-05-22T20:34:05.472Z,20.79
2023-05-22T20:36:40.814Z,20.79
2023-05-22T20:39:10.748Z,20.69
2023-05-22T20:41:43.224Z,20.73
2023-05-22T20:44:34.236Z,20.90
2023-05-22T20:47:03.252Z,20.95
2023-05-22T20:49:36.896Z,20.94
2023-05-22T20:52:06.193Z,20.94
2023-05-22T20:54:37.347Z,20.97
2023-05-22T20:57:08.900Z,20.86
2023-05-22T20:59:38.204Z,20.94
2023-05-22T21:02:07.285Z,21.04
2023-05-22T21:04:41.188Z,20.93
2023-05-22T21:07:11.415Z,20.97
2023-05-22T21:09:42.025Z,20.99
2023-05-22T21:12:13.690Z,21.04
2023-05-22T21:14:47.938Z,20.98
2023-05-22T21:17:20.218Z,20.86
2023-05-22T21:19:56.215Z,20.93
2023-05-22T21:22:24.545Z,20.96
2023-05-22T21:24:53.319Z,20.92
2023-05-22T21:27:23.535Z,20.99
2023-05-22T21:29:55.176Z,21.11
2023-05-22T21:32:28.140Z,21.07
2023-05-22T21:34:59.665Z,21.01
2023-05-22T21:37:28.052Z,21.12
2023-05-22T21:39:56.683Z,21.17
2023-05-22T21:42:26.427Z,21.18
2023-05-22T21:44:56.630Z,21.21
2023-05-22T21:47:25.281Z,21.16
2023-05-22T21:49:53.195Z,21.23
2023-05-22T21:52:22.500Z,21.19
2023-05-22T21:54:50.563Z,21.23
2023-05-22T21:57:19.312Z,21.21
2023-05-22T21:59:53.567Z,21.08
2023-05-22T22:02:25.452Z,20.98
2023-05-22T22:04:56.067Z,20.96
2023-05-22T22:07:25.987Z,20.82
2023-05-22T22:09:53.734Z,20.87
2023-05-22T22:12:24.820Z,20.78
2023-05-22T22:14:55.746Z,20.84
2023-05-22T22:17:33.326Z,20.71
2023-05-22T22:20:01.264Z,20.76
2023-05-22T22:22:30.777Z,20.65
2023-05-22T22:25:00.968Z,20.79
2023-05-22T22:27:29.252Z,20.68
2023-05-22T22:29:57.297Z,20.62
2023-05-22T22:32:27.446Z,20.54
2023-05-22T22:34:55.283Z,20.56
2023-05-22T22:37:24.859Z,20.50
2023-05-22T22:39:53.266Z,20.53
2023-05-22T22:42:22.049Z,20.73
2023-05-22T22:44:50.289Z,20.61
2023-05-22T22:47:18.745Z,20.49
2023-05-22T22:49:53.167Z,20.57
2023-05-22T22:52:21.462Z,20.52
2023-05-22T22:54:50.184Z,20.45
2023-05-22T22:57:20.053Z,20.53
2023-05-22T22:59:48.534Z,20.62
2023-05-22T23:02:16.914Z,20.51
2023-05-22T23:04:45.990Z,20.64
2023-05-22T23:07:15.366Z,20.52
2023-05-22T23:09:43.227Z,20.44
2023-05-22T23:12:12.668Z,20.36
2023-05-22T23:14:41.137Z,20.26
2023-05-22T23:17:10.566Z,20.33
2023-05-22T23:19:46.346Z,20.28
2023-05-22T23:22:17.811Z,20.20
2023-05-22T23:24:46.344Z,20.35
2023-05-22T23:27:15.342Z,20.37
2023-05-22T23:29:46.722Z,20.36
2023-05-22T23:32:15.562Z,20.43
2023-05-22T23:34:43.930Z,20.16
2023-05-22T23:37:12.994Z,20.24
2023-05-22T23:39:42.351Z,20.38
2023-05-22T23:42:12.033Z,20.22
2023-05-22T23:44:41.713Z,20.30
2023-05-22T23:47:10.419Z,20.34
2023-05-22T23:49:38.575Z,20.22
2023-05-22T23:52:09.081Z,20.09
2023-05-22T23:54:37.026Z,20.22
2023-05-22T23:57:07.518Z,20.28
2023-05-22T23:59:41.010Z,20.28
